createdAt,value
2019-04-04T00:01:26.756Z,1.50
2019-04-04T00:03:54.763Z,1.87
2019-04-04T00:06:25.053Z,1.50
2019-04-04T00:08:51.631Z,1.45
2019-04-04T00:11:19.772Z,1.40
2019-04-04T00:13:47.833Z,1.60
2019-04-04T00:16:16.570Z,1.60
2019-04-04T00:18:43.912Z,1.37
2019-04-04T00:21:11.959Z,1.50
2019-04-04T00:23:40.063Z,1.70
2019-04-04T00:26:08.904Z,1.77
2019-04-04T00:28:36.891Z,1.80
2019-04-04T00:31:05.703Z,2.00
2019-04-04T00:33:33.755Z,1.90
2019-04-04T00:36:03.290Z,1.95
2019-04-04T00:38:30.706Z,2.12
2019-04-04T00:40:59.510Z,1.90
2019-04-04T00:43:28.407Z,1.87
2019-04-04T00:45:56.459Z,2.00
2019-04-04T00:48:25.287Z,2.10
2019-04-04T00:50:53.335Z,3.22
2019-04-04T00:53:21.382Z,2.08
2019-04-04T00:55:49.405Z,2.00
2019-04-04T00:58:18.901Z,3.15
2019-04-04T01:00:46.239Z,2.70
2019-04-04T01:03:14.287Z,3.00
2019-04-04T01:05:43.139Z,4.40
2019-04-04T01:08:11.183Z,3.90
2019-04-04T01:10:39.233Z,3.95
2019-04-04T01:13:08.005Z,4.50
2019-04-04T01:15:36.823Z,5.07
2019-04-04T01:18:06.155Z,5.30
2019-04-04T01:20:33.684Z,3.92
2019-04-04T01:23:02.464Z,3.33
2019-04-04T01:25:32.656Z,3.35
2019-04-04T01:27:59.299Z,2.80
2019-04-04T01:30:28.195Z,2.83
2019-04-04T01:32:56.256Z,3.55
2019-04-04T01:35:25.040Z,4.97
2019-04-04T01:37:53.855Z,4.22
2019-04-04T01:40:21.882Z,6.50
2019-04-04T01:42:49.999Z,8.65
2019-04-04T01:45:18.034Z,7.82
2019-04-04T01:47:47.978Z,6.60
2019-04-04T01:50:14.167Z,7.28
2019-04-04T01:52:42.217Z,7.50
2019-04-04T01:55:10.348Z,7.55
2019-04-04T01:57:39.490Z,6.87
2019-04-04T02:00:07.158Z,5.75
2019-04-04T02:02:35.221Z,5.75
2019-04-04T02:05:03.247Z,5.22
2019-04-04T02:07:31.278Z,4.55
2019-04-04T02:09:59.387Z,5.05
2019-04-04T02:12:28.171Z,5.30
2019-04-04T02:14:56.209Z,5.90
2019-04-04T02:17:24.316Z,5.80
2019-04-04T02:19:55.574Z,5.80
2019-04-04T02:22:21.169Z,5.72
2019-04-04T02:24:49.950Z,5.53
2019-04-04T02:27:18.021Z,5.30
2019-04-04T02:29:46.063Z,5.28
2019-04-04T02:32:15.056Z,5.43
2019-04-04T02:34:43.094Z,6.47
2019-04-04T02:37:11.228Z,5.50
2019-04-04T02:39:39.268Z,5.85
2019-04-04T02:42:07.336Z,6.68
2019-04-04T02:44:35.406Z,7.28
2019-04-04T02:47:03.434Z,7.90
2019-04-04T02:49:32.302Z,8.37
2019-04-04T02:52:00.363Z,8.57
2019-04-04T02:54:28.435Z,9.15
2019-04-04T02:56:56.468Z,8.98
2019-04-04T02:59:24.586Z,9.05
2019-04-04T03:01:52.627Z,9.15
2019-04-04T03:04:21.423Z,8.40
2019-04-04T03:06:49.453Z,8.75
2019-04-04T03:09:17.488Z,8.63
2019-04-04T03:11:45.532Z,8.80
2019-04-04T03:14:14.343Z,8.82
2019-04-04T03:16:42.502Z,9.13
2019-04-04T03:19:11.327Z,8.70
2019-04-04T03:21:38.580Z,8.70
2019-04-04T03:24:07.356Z,8.38
2019-04-04T03:26:34.686Z,8.75
2019-04-04T03:29:05.549Z,9.23
2019-04-04T03:31:36.443Z,9.18
2019-04-04T03:34:08.662Z,9.73
2019-04-04T03:36:32.969Z,9.02
2019-04-04T03:38:57.406Z,9.27
2019-04-04T03:41:27.567Z,9.73
2019-04-04T03:43:53.505Z,9.80
2019-04-04T03:46:23.051Z,9.95
2019-04-04T03:48:51.220Z,9.68
2019-04-04T03:51:19.900Z,9.82
2019-04-04T03:53:49.525Z,9.60
2019-04-04T03:56:16.770Z,10.25
2019-04-04T03:58:44.835Z,10.35
2019-04-04T04:01:13.377Z,9.87
2019-04-04T04:03:40.893Z,10.20
2019-04-04T04:06:10.058Z,10.07
2019-04-04T04:08:37.147Z,9.95
2019-04-04T04:11:06.023Z,10.32
2019-04-04T04:13:33.233Z,10.45
2019-04-04T04:16:03.678Z,10.45
2019-04-04T04:18:30.109Z,9.68
2019-04-04T04:20:58.152Z,10.00
2019-04-04T04:23:26.958Z,10.50
2019-04-04T04:25:55.002Z,10.18
2019-04-04T04:28:23.816Z,10.55
2019-04-04T04:37:19.742Z,11.57
2019-04-04T04:39:45.276Z,12.00
2019-04-04T04:42:13.316Z,11.45
2019-04-04T04:44:42.091Z,12.68
2019-04-04T04:47:10.146Z,13.25
2019-04-04T04:49:38.195Z,13.13
2019-04-04T04:52:06.236Z,14.27
2019-04-04T04:54:35.158Z,13.85
2019-04-04T04:57:04.076Z,13.75
2019-04-04T04:59:31.265Z,14.23
2019-04-04T05:02:00.186Z,14.50
2019-04-04T05:04:28.917Z,14.32
2019-04-04T05:06:57.123Z,16.10
2019-04-04T05:09:25.973Z,14.70
2019-04-04T05:11:54.009Z,16.17
2019-04-04T05:14:22.066Z,16.08
2019-04-04T05:16:50.119Z,16.12
2019-04-04T05:19:19.625Z,16.23
2019-04-04T05:21:47.087Z,15.80
2019-04-04T05:24:16.022Z,18.50
2019-04-04T05:26:43.170Z,18.95
2019-04-04T05:29:13.445Z,18.20
2019-04-04T05:31:39.391Z,19.33
2019-04-04T05:34:08.286Z,19.55
2019-04-04T05:36:37.047Z,21.58
2019-04-04T05:39:05.141Z,21.10
2019-04-04T05:41:33.199Z,22.00
2019-04-04T05:44:01.284Z,21.95
2019-04-04T05:46:30.158Z,21.80
2019-04-04T05:49:00.731Z,20.33
2019-04-04T05:51:26.291Z,21.35
2019-04-04T05:53:54.374Z,21.42
2019-04-04T05:56:24.390Z,20.30
2019-04-04T05:58:53.136Z,21.95
2019-04-04T06:01:19.293Z,20.95
2019-04-04T06:03:48.135Z,20.53
2019-04-04T06:06:16.132Z,21.27
2019-04-04T06:08:44.935Z,19.80
2019-04-04T06:11:13.024Z,20.42
2019-04-04T06:13:41.088Z,20.02
2019-04-04T06:16:09.149Z,19.42
2019-04-04T06:18:37.227Z,20.15
2019-04-04T06:21:05.274Z,20.35
2019-04-04T06:23:34.195Z,20.42
2019-04-04T06:26:06.339Z,20.13
2019-04-04T06:28:31.043Z,20.40
2019-04-04T06:31:00.821Z,19.75
2019-04-04T06:33:27.114Z,20.10
2019-04-04T06:35:55.161Z,19.27
2019-04-04T06:38:24.034Z,19.75
2019-04-04T06:40:52.014Z,20.55
2019-04-04T06:43:20.058Z,21.50
2019-04-04T06:45:48.979Z,19.48
2019-04-04T06:48:17.763Z,19.43
2019-04-04T06:50:45.813Z,19.35
2019-04-04T06:53:14.626Z,19.62
2019-04-04T06:55:42.693Z,18.20
2019-04-04T06:58:10.745Z,19.58
2019-04-04T07:00:41.758Z,19.17
2019-04-04T07:03:06.851Z,18.83
2019-04-04T07:05:37.917Z,18.17
2019-04-04T07:08:03.055Z,18.23
2019-04-04T07:10:31.124Z,18.75
2019-04-04T07:13:14.543Z,18.17
2019-04-04T07:15:27.324Z,18.60
2019-04-04T07:17:56.148Z,17.65
2019-04-04T07:20:24.209Z,18.12
2019-04-04T07:22:55.653Z,17.60
2019-04-04T07:25:21.039Z,17.70
2019-04-04T07:27:49.869Z,17.30
2019-04-04T07:30:17.931Z,19.48
2019-04-04T07:32:46.002Z,18.73
2019-04-04T07:35:16.774Z,18.87
2019-04-04T07:37:42.971Z,18.08
2019-04-04T07:40:11.011Z,17.58
2019-04-04T07:42:40.355Z,17.10
2019-04-04T07:45:07.879Z,17.12
2019-04-04T07:47:35.918Z,17.33
2019-04-04T07:50:04.851Z,17.12
2019-04-04T07:52:33.747Z,16.90
2019-04-04T07:55:01.896Z,17.67
2019-04-04T07:57:30.377Z,16.85
2019-04-04T07:59:58.662Z,17.87
2019-04-04T08:02:26.714Z,17.30
2019-04-04T08:04:55.523Z,17.75
2019-04-04T08:07:23.580Z,17.37
2019-04-04T08:09:52.210Z,17.20
2019-04-04T08:12:20.343Z,17.52
2019-04-04T08:14:48.386Z,17.73
2019-04-04T08:17:18.844Z,18.20
2019-04-04T08:19:45.255Z,17.92
2019-04-04T08:22:13.430Z,17.05
2019-04-04T08:24:41.423Z,16.23
2019-04-04T08:27:09.484Z,16.37
2019-04-04T08:29:37.663Z,16.83
2019-04-04T08:32:05.715Z,17.12
2019-04-04T08:34:36.412Z,17.48
2019-04-04T08:37:02.689Z,17.95
2019-04-04T08:39:31.471Z,18.03
2019-04-04T08:41:59.524Z,18.15
2019-04-04T08:44:27.562Z,19.00
2019-04-04T08:46:55.860Z,22.05
2019-04-04T08:49:23.666Z,21.05
2019-04-04T08:51:52.476Z,21.60
2019-04-04T08:54:20.520Z,22.15
2019-04-04T08:56:49.302Z,19.67
2019-04-04T08:59:17.374Z,19.80
2019-04-04T09:01:45.483Z,21.60
2019-04-04T09:04:13.495Z,19.60
2019-04-04T09:06:42.310Z,19.92
2019-04-04T09:09:10.356Z,20.10
2019-04-04T09:11:39.183Z,19.77
2019-04-04T09:14:07.230Z,18.37
2019-04-04T09:16:35.302Z,20.62
2019-04-04T09:19:03.354Z,22.02
2019-04-04T09:21:31.452Z,19.93
2019-04-04T09:24:00.776Z,19.42
2019-04-04T09:26:28.327Z,20.88
2019-04-04T09:28:56.370Z,20.23
2019-04-04T09:31:24.415Z,22.00
2019-04-04T09:33:53.219Z,19.58
2019-04-04T09:36:21.306Z,20.55
2019-04-04T09:38:49.382Z,21.27
2019-04-04T09:41:18.173Z,21.70
2019-04-04T09:43:46.206Z,20.92
2019-04-04T09:46:14.244Z,20.87
2019-04-04T09:48:42.375Z,21.12
2019-04-04T09:51:10.424Z,20.83
2019-04-04T09:53:52.392Z,22.50
2019-04-04T09:56:07.307Z,20.62
2019-04-04T09:58:35.385Z,20.85
2019-04-04T10:01:06.393Z,20.77
2019-04-04T10:03:31.491Z,21.37
2019-04-04T10:06:00.408Z,21.77
2019-04-04T10:08:28.450Z,19.80
2019-04-04T10:10:57.285Z,19.35
2019-04-04T10:13:25.334Z,21.12
2019-04-04T10:15:53.374Z,20.33
2019-04-04T10:18:22.183Z,20.35
2019-04-04T10:20:50.266Z,19.05
2019-04-04T10:23:18.317Z,20.42
2019-04-04T10:25:46.341Z,20.23
2019-04-04T10:28:14.398Z,20.67
2019-04-04T10:30:42.539Z,20.15
2019-04-04T10:33:11.433Z,19.27
2019-04-04T10:35:39.460Z,19.92
2019-04-04T10:38:07.526Z,20.80
2019-04-04T10:40:35.558Z,19.10
2019-04-04T10:43:03.610Z,19.70
2019-04-04T10:45:31.644Z,18.45
2019-04-04T10:48:00.467Z,20.67
2019-04-04T10:50:28.538Z,18.05
2019-04-04T10:52:56.605Z,18.98
2019-04-04T10:55:24.659Z,18.42
2019-04-04T10:57:53.481Z,19.25
2019-04-04T11:00:21.536Z,20.40
2019-04-04T11:02:50.331Z,17.95
2019-04-04T11:05:18.397Z,18.15
2019-04-04T11:07:46.455Z,17.52
2019-04-04T11:10:14.507Z,17.77
2019-04-04T11:12:43.434Z,17.30
2019-04-04T11:15:11.472Z,18.67
2019-04-04T11:17:40.394Z,16.50
2019-04-04T11:20:08.460Z,18.48
2019-04-04T11:22:36.515Z,16.55
2019-04-04T11:25:05.303Z,16.67
2019-04-04T11:27:33.387Z,15.82
2019-04-04T11:30:01.447Z,16.83
2019-04-04T11:32:29.526Z,15.95
2019-04-04T11:34:57.575Z,16.05
2019-04-04T11:37:25.640Z,15.70
2019-04-04T11:39:54.772Z,15.13
2019-04-04T11:42:21.723Z,15.43
2019-04-04T11:44:49.770Z,15.00
2019-04-04T11:47:17.838Z,15.63
2019-04-04T11:49:46.630Z,15.10
2019-04-04T11:52:14.707Z,15.25
2019-04-04T11:54:48.475Z,15.70
2019-04-04T11:57:16.518Z,15.53
2019-04-04T11:59:44.558Z,15.35
2019-04-04T12:02:12.579Z,14.48
2019-04-04T12:04:41.411Z,17.45
2019-04-04T12:07:09.476Z,15.73
2019-04-04T12:09:37.539Z,15.02
2019-04-04T12:12:05.625Z,14.48
2019-04-04T12:14:34.911Z,15.15
2019-04-04T12:17:03.811Z,13.90
2019-04-04T12:19:31.864Z,14.70
2019-04-04T12:21:59.995Z,14.27
2019-04-04T12:24:28.057Z,13.80
2019-04-04T12:26:56.104Z,13.70
2019-04-04T12:29:24.275Z,13.52
2019-04-04T12:31:52.326Z,12.65
2019-04-04T12:34:20.405Z,13.18
2019-04-04T12:36:48.450Z,13.50
2019-04-04T12:39:16.539Z,13.23
2019-04-04T12:41:44.609Z,13.60
2019-04-04T12:44:12.674Z,13.27
2019-04-04T12:46:42.509Z,13.62
2019-04-04T12:49:09.227Z,13.35
2019-04-04T12:51:37.302Z,13.80
2019-04-04T12:54:05.358Z,12.95
2019-04-04T12:56:33.409Z,12.70
2019-04-04T12:59:02.231Z,12.80
2019-04-04T13:01:30.327Z,13.65
2019-04-04T13:03:58.393Z,13.60
2019-04-04T13:06:26.727Z,13.10
2019-04-04T13:08:55.641Z,11.88
2019-04-04T13:11:23.730Z,12.37
2019-04-04T13:13:51.782Z,12.75
2019-04-04T13:16:19.886Z,12.15
2019-04-04T13:18:47.951Z,12.75
2019-04-04T13:21:15.998Z,12.87
2019-04-04T13:23:44.110Z,11.32
2019-04-04T13:26:12.159Z,11.07
2019-04-04T13:28:40.221Z,11.25
2019-04-04T13:31:08.375Z,10.25
2019-04-04T13:33:37.354Z,10.53
2019-04-04T13:36:06.258Z,9.90
2019-04-04T13:38:35.051Z,9.73
2019-04-04T13:41:03.091Z,9.02
2019-04-04T13:43:31.162Z,8.87
2019-04-04T13:46:00.089Z,9.07
2019-04-04T13:48:28.148Z,9.43
2019-04-04T13:50:56.266Z,8.30
2019-04-04T13:53:25.428Z,9.38
2019-04-04T13:55:52.355Z,8.25
2019-04-04T13:58:22.305Z,9.00
2019-04-04T14:00:49.209Z,7.80
2019-04-04T14:03:18.849Z,7.85
2019-04-04T14:05:46.044Z,7.95
2019-04-04T14:08:14.489Z,7.97
2019-04-04T14:10:42.140Z,7.73
2019-04-04T14:13:12.003Z,7.68
2019-04-04T14:15:39.074Z,7.50
2019-04-04T14:18:21.999Z,8.77
2019-04-04T14:21:02.975Z,6.95
2019-04-04T14:23:21.503Z,7.10
2019-04-04T14:25:47.777Z,7.07
2019-04-04T14:28:15.808Z,6.53
2019-04-04T14:30:43.892Z,7.22
2019-04-04T14:33:11.940Z,7.55
2019-04-04T14:35:40.745Z,8.05
2019-04-04T14:38:08.790Z,7.43
2019-04-04T14:40:37.592Z,8.20
2019-04-04T14:43:05.672Z,7.65
2019-04-04T14:45:34.455Z,7.20
2019-04-04T14:48:02.491Z,7.28
2019-04-04T14:50:30.594Z,7.37
2019-04-04T14:52:58.630Z,7.75
2019-04-04T14:55:28.166Z,6.28
2019-04-04T14:57:56.191Z,8.38
2019-04-04T15:00:24.242Z,7.12
2019-04-04T15:02:52.376Z,6.65
2019-04-04T15:05:20.414Z,6.20
2019-04-04T15:07:48.584Z,6.72
2019-04-04T15:10:18.226Z,7.93
2019-04-04T15:12:46.263Z,7.07
2019-04-04T15:15:14.362Z,6.82
2019-04-04T15:17:43.288Z,6.10
2019-04-04T15:20:12.065Z,6.40
2019-04-04T15:22:40.086Z,6.28
2019-04-04T15:25:08.097Z,7.00
2019-04-04T15:27:36.405Z,6.37
2019-04-04T15:30:05.175Z,5.60
2019-04-04T15:32:33.351Z,6.43
2019-04-04T15:35:01.379Z,5.87
2019-04-04T15:37:30.175Z,5.68
2019-04-04T15:39:58.203Z,6.75
2019-04-04T15:42:26.240Z,6.50
2019-04-04T15:44:54.327Z,9.13
2019-04-04T15:47:22.460Z,10.48
2019-04-04T15:49:50.499Z,9.25
2019-04-04T15:52:18.578Z,11.75
2019-04-04T15:54:46.942Z,5.55
2019-04-04T15:57:16.637Z,6.82
2019-04-04T16:24:37.949Z,6.68
2019-04-04T16:27:06.739Z,5.97
2019-04-04T16:29:34.766Z,5.97
2019-04-04T16:32:02.811Z,5.50
2019-04-04T16:34:30.823Z,5.72
2019-04-04T16:36:58.922Z,6.90
2019-04-04T16:39:27.503Z,6.18
2019-04-04T16:42:02.151Z,5.62
2019-04-04T16:44:23.652Z,5.65
2019-04-04T16:46:51.723Z,6.18
2019-04-04T16:49:20.495Z,6.37
2019-04-04T16:51:49.300Z,5.55
2019-04-04T16:54:17.363Z,4.78
2019-04-04T16:56:45.399Z,5.70
2019-04-04T16:59:13.500Z,5.37
2019-04-04T17:01:41.571Z,6.30
2019-04-04T17:04:10.340Z,5.43
2019-04-04T17:06:39.363Z,5.05
2019-04-04T17:09:08.145Z,6.57
2019-04-04T17:11:36.207Z,4.97
2019-04-04T17:14:04.305Z,4.00
2019-04-04T17:16:32.349Z,4.40
2019-04-04T17:19:00.582Z,4.60
2019-04-04T17:21:28.607Z,6.80
2019-04-04T17:23:56.655Z,4.85
2019-04-04T17:26:24.686Z,3.60
2019-04-04T17:28:52.814Z,4.10
2019-04-04T17:31:21.369Z,4.95
2019-04-04T17:33:49.391Z,8.40
2019-04-04T17:36:19.897Z,11.65
2019-04-04T17:38:45.100Z,23.05
2019-04-04T17:41:13.116Z,6.23
2019-04-04T17:43:42.848Z,5.20
2019-04-04T17:46:10.690Z,3.83
2019-04-04T17:48:39.041Z,4.40
2019-04-04T17:51:06.881Z,2.90
2019-04-04T17:53:35.446Z,3.10
2019-04-04T17:56:03.175Z,3.28
2019-04-04T17:58:31.283Z,2.90
2019-04-04T18:00:59.359Z,3.00
2019-04-04T18:03:27.444Z,2.97
2019-04-04T18:05:55.509Z,2.87
2019-04-04T18:08:23.547Z,2.90
2019-04-04T18:10:52.370Z,2.70
2019-04-04T18:13:20.426Z,3.25
2019-04-04T18:15:48.495Z,2.90
2019-04-04T18:18:16.585Z,2.95
2019-04-04T18:20:45.351Z,3.20
2019-04-04T18:23:15.193Z,3.33
2019-04-04T18:25:41.506Z,3.33
2019-04-04T18:28:09.544Z,3.00
2019-04-04T18:30:38.346Z,3.53
2019-04-04T18:33:06.357Z,6.30
2019-04-04T18:35:34.692Z,3.95
2019-04-04T18:38:02.508Z,4.00
2019-04-04T18:40:30.548Z,3.83
2019-04-04T18:42:58.582Z,4.22
2019-04-04T18:45:26.610Z,5.07
2019-04-04T18:47:54.752Z,5.05
2019-04-04T18:50:23.523Z,5.40
2019-04-04T18:52:52.824Z,5.72
2019-04-04T18:55:21.627Z,5.87
2019-04-04T18:57:50.406Z,5.43
2019-04-04T19:00:18.460Z,5.90
2019-04-04T19:02:47.268Z,6.60
2019-04-04T19:05:15.339Z,6.62
2019-04-04T19:07:43.411Z,7.12
2019-04-04T19:10:12.292Z,7.97
2019-04-04T19:12:40.365Z,7.97
2019-04-04T19:15:08.444Z,8.88
2019-04-04T19:17:37.325Z,8.90
2019-04-04T19:20:05.364Z,8.98
2019-04-04T19:22:33.403Z,9.35
2019-04-04T19:25:01.457Z,9.73
2019-04-04T19:27:29.511Z,10.02
2019-04-04T19:29:57.560Z,9.52
2019-04-04T19:32:26.365Z,9.55
2019-04-04T19:34:55.144Z,9.68
2019-04-04T19:37:23.180Z,10.20
2019-04-04T19:39:51.228Z,9.65
2019-04-04T19:42:19.257Z,9.40
2019-04-04T19:44:53.147Z,9.20
2019-04-04T19:47:15.420Z,10.00
2019-04-04T19:49:43.579Z,10.30
2019-04-04T19:52:12.359Z,9.95
2019-04-04T19:54:40.412Z,10.18
2019-04-04T19:57:09.224Z,9.30
2019-04-04T19:59:37.259Z,9.82
2019-04-04T20:02:05.299Z,9.55
2019-04-04T20:04:33.341Z,9.70
2019-04-04T20:07:03.653Z,9.65
2019-04-04T20:09:29.413Z,9.43
2019-04-04T20:11:57.456Z,9.70
2019-04-04T20:14:28.655Z,10.67
2019-04-04T20:16:54.391Z,10.63
2019-04-04T20:19:22.440Z,10.52
2019-04-04T20:21:51.254Z,11.12
2019-04-04T20:24:19.290Z,10.77
2019-04-04T20:26:47.396Z,11.93
2019-04-04T20:29:15.478Z,12.45
2019-04-04T20:31:44.360Z,13.00
2019-04-04T20:34:12.422Z,13.02
2019-04-04T20:36:40.605Z,12.90
2019-04-04T20:39:08.650Z,13.05
2019-04-04T20:41:36.755Z,12.63
2019-04-04T20:44:04.810Z,13.20
2019-04-04T20:46:33.611Z,13.93
2019-04-04T20:49:01.671Z,14.13
2019-04-04T20:51:29.739Z,14.68
2019-04-04T20:53:57.808Z,14.50
2019-04-04T20:56:25.864Z,14.98
2019-04-04T20:58:54.665Z,15.80
2019-04-04T21:01:22.723Z,15.77
2019-04-04T21:03:51.639Z,15.25
2019-04-04T21:06:20.515Z,15.97
2019-04-04T21:08:48.559Z,14.80
2019-04-04T21:11:16.667Z,15.55
2019-04-04T21:13:55.603Z,15.07
2019-04-04T21:16:13.624Z,15.90
2019-04-04T21:18:41.669Z,14.73
2019-04-04T21:21:10.494Z,11.57
2019-04-04T21:23:38.532Z,11.02
2019-04-04T21:26:07.359Z,10.75
2019-04-04T21:28:35.552Z,10.10
2019-04-04T21:31:03.570Z,9.20
2019-04-04T21:33:32.466Z,9.48
2019-04-04T21:36:00.559Z,8.90
2019-04-04T21:38:28.619Z,8.75
2019-04-04T21:40:56.643Z,8.77
2019-04-04T21:43:26.298Z,9.20
2019-04-04T21:45:54.416Z,9.40
2019-04-04T21:48:22.532Z,9.52
2019-04-04T21:50:50.571Z,10.00
2019-04-04T21:53:19.386Z,10.23
2019-04-04T21:55:47.436Z,10.13
2019-04-04T21:58:16.355Z,10.95
2019-04-04T22:00:45.136Z,10.40
2019-04-04T22:03:13.204Z,10.68
2019-04-04T22:05:41.259Z,11.82
2019-04-04T22:08:09.281Z,10.77
2019-04-04T22:10:37.416Z,10.48
2019-04-04T22:13:05.457Z,10.57
2019-04-04T22:15:34.276Z,10.70
2019-04-04T22:18:02.442Z,10.10
2019-04-04T22:20:30.515Z,10.30
2019-04-04T22:22:58.574Z,10.90
2019-04-04T22:25:26.598Z,11.67
2019-04-04T22:27:54.643Z,11.45
2019-04-04T22:30:22.719Z,11.70
2019-04-04T22:32:50.790Z,11.57
2019-04-04T22:35:18.819Z,11.85
2019-04-04T22:37:47.741Z,11.55
2019-04-04T22:40:15.806Z,11.75
2019-04-04T22:42:43.864Z,11.65
2019-04-04T22:45:12.663Z,12.10
2019-04-04T22:47:40.712Z,13.38
2019-04-04T22:50:09.635Z,13.35
2019-04-04T22:52:37.686Z,13.57
2019-04-04T22:55:05.734Z,13.93
2019-04-04T22:57:34.562Z,14.70
2019-04-04T23:00:03.335Z,14.55
2019-04-04T23:02:31.402Z,13.98
2019-04-04T23:04:59.450Z,13.88
2019-04-04T23:07:27.564Z,14.97
2019-04-04T23:09:55.627Z,14.82
2019-04-04T23:12:23.685Z,15.35
2019-04-04T23:14:51.754Z,14.13
2019-04-04T23:17:19.979Z,15.18
2019-04-04T23:19:48.043Z,14.98
2019-04-04T23:22:16.086Z,15.35
2019-04-04T23:24:44.150Z,14.40
2019-04-04T23:27:12.190Z,15.07
2019-04-04T23:29:42.606Z,15.70
2019-04-04T23:32:09.056Z,15.20
2019-04-04T23:34:37.138Z,15.20
2019-04-04T23:37:05.190Z,15.30
2019-04-04T23:39:34.723Z,14.97
2019-04-04T23:42:02.779Z,14.30
2019-04-04T23:44:31.680Z,15.07
2019-04-04T23:46:59.824Z,15.20
2019-04-04T23:49:27.824Z,16.10
2019-04-04T23:51:55.903Z,14.87
2019-04-04T23:54:23.960Z,15.55
2019-04-04T23:56:52.011Z,15.15
2019-04-04T23:59:20.926Z,15.50
